sensor_id;sensor_type;location;lat;lon;timestamp;P1;durP1;ratioP1;P2;durP2;ratioP2
10128;SDS011;5104;50.720;7.044;2024-02-23T00:00:59;0.50;;;0.50;;
10128;SDS011;5104;50.720;7.044;2024-02-23T00:03:26;0.40;;;0.40;;
10128;SDS011;5104;50.720;7.044;2024-02-23T00:05:53;0.50;;;0.50;;
10128;SDS011;5104;50.720;7.044;2024-02-23T00:08:21;0.40;;;0.40;;
10128;SDS011;5104;50.720;7.044;2024-02-23T00:10:48;0.50;;;0.50;;
10128;SDS011;5104;50.720;7.044;2024-02-23T00:13:15;0.40;;;0.40;;
10128;SDS011;5104;50.720;7.044;2024-02-23T00:15:42;0.40;;;0.40;;
10128;SDS011;5104;50.720;7.044;2024-02-23T00:18:10;0.40;;;0.40;;
10128;SDS011;5104;50.720;7.044;2024-02-23T00:20:38;0.50;;;0.50;;
10128;SDS011;5104;50.720;7.044;2024-02-23T00:23:05;0.50;;;0.50;;
10128;SDS011;5104;50.720;7.044;2024-02-23T00:25:33;0.50;;;0.50;;
10128;SDS011;5104;50.720;7.044;2024-02-23T00:28:00;0.55;;;0.55;;
10128;SDS011;5104;50.720;7.044;2024-02-23T00:30:27;0.50;;;0.50;;
10128;SDS011;5104;50.720;7.044;2024-02-23T00:32:54;0.50;;;0.50;;
10128;SDS011;5104;50.720;7.044;2024-02-23T00:35:21;0.50;;;0.50;;
10128;SDS011;5104;50.720;7.044;2024-02-23T00:37:48;0.50;;;0.50;;
10128;SDS011;5104;50.720;7.044;2024-02-23T00:40:15;0.50;;;0.50;;
10128;SDS011;5104;50.720;7.044;2024-02-23T00:42:43;0.50;;;0.50;;
10128;SDS011;5104;50.720;7.044;2024-02-23T00:45:11;0.50;;;0.50;;
10128;SDS011;5104;50.720;7.044;2024-02-23T00:47:38;0.50;;;0.50;;
10128;SDS011;5104;50.720;7.044;2024-02-23T00:50:05;0.50;;;0.50;;
10128;SDS011;5104;50.720;7.044;2024-02-23T00:52:33;0.43;;;0.43;;
10128;SDS011;5104;50.720;7.044;2024-02-23T00:55:00;0.50;;;0.50;;
10128;SDS011;5104;50.720;7.044;2024-02-23T00:57:27;0.50;;;0.50;;
10128;SDS011;5104;50.720;7.044;2024-02-23T00:59:56;0.50;;;0.50;;
10128;SDS011;5104;50.720;7.044;2024-02-23T01:02:23;0.50;;;0.50;;
10128;SDS011;5104;50.720;7.044;2024-02-23T01:04:50;0.50;;;0.50;;
10128;SDS011;5104;50.720;7.044;2024-02-23T01:07:21;0.50;;;0.50;;
10128;SDS011;5104;50.720;7.044;2024-02-23T01:09:48;0.50;;;0.50;;
10128;SDS011;5104;50.720;7.044;2024-02-23T01:12:15;0.50;;;0.50;;
10128;SDS011;5104;50.720;7.044;2024-02-23T01:14:42;0.50;;;0.50;;
10128;SDS011;5104;50.720;7.044;2024-02-23T01:17:11;0.40;;;0.40;;
10128;SDS011;5104;50.720;7.044;2024-02-23T01:19:38;0.57;;;0.57;;
10128;SDS011;5104;50.720;7.044;2024-02-23T01:22:06;0.50;;;0.50;;
10128;SDS011;5104;50.720;7.044;2024-02-23T01:24:33;0.50;;;0.50;;
10128;SDS011;5104;50.720;7.044;2024-02-23T01:27:01;0.50;;;0.50;;
10128;SDS011;5104;50.720;7.044;2024-02-23T01:29:27;0.50;;;0.50;;
10128;SDS011;5104;50.720;7.044;2024-02-23T01:31:54;0.52;;;0.52;;
10128;SDS011;5104;50.720;7.044;2024-02-23T01:34:22;0.50;;;0.50;;
10128;SDS011;5104;50.720;7.044;2024-02-23T01:36:49;0.50;;;0.50;;
10128;SDS011;5104;50.720;7.044;2024-02-23T01:39:16;0.50;;;0.50;;
10128;SDS011;5104;50.720;7.044;2024-02-23T01:41:43;0.50;;;0.50;;
10128;SDS011;5104;50.720;7.044;2024-02-23T01:44:10;0.50;;;0.50;;
10128;SDS011;5104;50.720;7.044;2024-02-23T01:46:38;0.50;;;0.50;;
10128;SDS011;5104;50.720;7.044;2024-02-23T01:49:05;0.50;;;0.50;;
10128;SDS011;5104;50.720;7.044;2024-02-23T01:51:35;0.50;;;0.50;;
10128;SDS011;5104;50.720;7.044;2024-02-23T01:54:02;0.50;;;0.50;;
10128;SDS011;5104;50.720;7.044;2024-02-23T01:56:30;0.50;;;0.50;;
10128;SDS011;5104;50.720;7.044;2024-02-23T01:58:59;0.50;;;0.50;;
10128;SDS011;5104;50.720;7.044;2024-02-23T02:01:28;0.50;;;0.50;;
10128;SDS011;5104;50.720;7.044;2024-02-23T02:03:55;0.50;;;0.50;;
10128;SDS011;5104;50.720;7.044;2024-02-23T02:06:22;0.50;;;0.50;;
10128;SDS011;5104;50.720;7.044;2024-02-23T02:08:51;0.50;;;0.50;;
10128;SDS011;5104;50.720;7.044;2024-02-23T02:11:18;0.60;;;0.60;;
10128;SDS011;5104;50.720;7.044;2024-02-23T02:13:45;0.50;;;0.50;;
10128;SDS011;5104;50.720;7.044;2024-02-23T02:16:12;0.60;;;0.60;;
10128;SDS011;5104;50.720;7.044;2024-02-23T02:18:39;0.60;;;0.60;;
10128;SDS011;5104;50.720;7.044;2024-02-23T02:21:06;0.50;;;0.50;;
10128;SDS011;5104;50.720;7.044;2024-02-23T02:23:33;0.50;;;0.50;;
10128;SDS011;5104;50.720;7.044;2024-02-23T02:26:03;0.50;;;0.50;;
10128;SDS011;5104;50.720;7.044;2024-02-23T02:28:30;0.50;;;0.50;;
10128;SDS011;5104;50.720;7.044;2024-02-23T02:30:57;0.50;;;0.50;;
10128;SDS011;5104;50.720;7.044;2024-02-23T02:33:24;0.60;;;0.60;;
10128;SDS011;5104;50.720;7.044;2024-02-23T02:35:51;0.50;;;0.50;;
10128;SDS011;5104;50.720;7.044;2024-02-23T02:38:18;0.50;;;0.50;;
10128;SDS011;5104;50.720;7.044;2024-02-23T02:40:45;0.50;;;0.50;;
10128;SDS011;5104;50.720;7.044;2024-02-23T02:43:13;0.60;;;0.60;;
10128;SDS011;5104;50.720;7.044;2024-02-23T02:45:40;0.50;;;0.50;;
10128;SDS011;5104;50.720;7.044;2024-02-23T02:48:07;0.40;;;0.40;;
10128;SDS011;5104;50.720;7.044;2024-02-23T02:50:34;0.60;;;0.60;;
10128;SDS011;5104;50.720;7.044;2024-02-23T02:53:01;0.60;;;0.60;;
10128;SDS011;5104;50.720;7.044;2024-02-23T02:55:28;0.60;;;0.60;;
10128;SDS011;5104;50.720;7.044;2024-02-23T02:57:55;0.50;;;0.50;;
10128;SDS011;5104;50.720;7.044;2024-02-23T03:00:23;0.60;;;0.60;;
10128;SDS011;5104;50.720;7.044;2024-02-23T03:02:50;0.60;;;0.60;;
10128;SDS011;5104;50.720;7.044;2024-02-23T03:05:17;0.50;;;0.50;;
10128;SDS011;5104;50.720;7.044;2024-02-23T03:07:44;0.50;;;0.50;;
10128;SDS011;5104;50.720;7.044;2024-02-23T03:10:11;0.50;;;0.50;;
10128;SDS011;5104;50.720;7.044;2024-02-23T03:12:38;0.50;;;0.50;;
10128;SDS011;5104;50.720;7.044;2024-02-23T03:15:05;0.55;;;0.55;;
10128;SDS011;5104;50.720;7.044;2024-02-23T03:17:33;0.52;;;0.52;;
10128;SDS011;5104;50.720;7.044;2024-02-23T03:20:00;0.60;;;0.60;;
10128;SDS011;5104;50.720;7.044;2024-02-23T03:22:30;0.50;;;0.50;;
10128;SDS011;5104;50.720;7.044;2024-02-23T03:24:57;0.60;;;0.60;;
10128;SDS011;5104;50.720;7.044;2024-02-23T03:27:27;0.50;;;0.50;;
10128;SDS011;5104;50.720;7.044;2024-02-23T03:29:54;0.50;;;0.50;;
10128;SDS011;5104;50.720;7.044;2024-02-23T03:32:21;0.50;;;0.50;;
10128;SDS011;5104;50.720;7.044;2024-02-23T03:34:49;0.50;;;0.50;;
10128;SDS011;5104;50.720;7.044;2024-02-23T03:37:16;0.60;;;0.60;;
10128;SDS011;5104;50.720;7.044;2024-02-23T03:39:43;0.60;;;0.60;;
10128;SDS011;5104;50.720;7.044;2024-02-23T03:42:10;0.57;;;0.57;;
10128;SDS011;5104;50.720;7.044;2024-02-23T03:44:37;0.50;;;0.50;;
10128;SDS011;5104;50.720;7.044;2024-02-23T03:47:04;0.50;;;0.50;;
10128;SDS011;5104;50.720;7.044;2024-02-23T03:49:31;0.50;;;0.50;;
10128;SDS011;5104;50.720;7.044;2024-02-23T03:51:59;0.60;;;0.60;;
10128;SDS011;5104;50.720;7.044;2024-02-23T03:54:26;0.50;;;0.50;;
10128;SDS011;5104;50.720;7.044;2024-02-23T03:56:53;0.60;;;0.60;;
10128;SDS011;5104;50.720;7.044;2024-02-23T03:59:20;0.60;;;0.60;;
10128;SDS011;5104;50.720;7.044;2024-02-23T04:01:47;0.60;;;0.60;;
10128;SDS011;5104;50.720;7.044;2024-02-23T04:04:14;0.50;;;0.50;;
10128;SDS011;5104;50.720;7.044;2024-02-23T04:06:40;0.60;;;0.60;;
10128;SDS011;5104;50.720;7.044;2024-02-23T04:09:09;0.60;;;0.60;;
10128;SDS011;5104;50.720;7.044;2024-02-23T04:11:36;0.40;;;0.40;;
10128;SDS011;5104;50.720;7.044;2024-02-23T04:14:02;0.50;;;0.50;;
10128;SDS011;5104;50.720;7.044;2024-02-23T04:16:30;0.60;;;0.60;;
10128;SDS011;5104;50.720;7.044;2024-02-23T04:18:57;0.60;;;0.60;;
10128;SDS011;5104;50.720;7.044;2024-02-23T04:21:25;0.60;;;0.60;;
10128;SDS011;5104;50.720;7.044;2024-02-23T04:23:51;0.50;;;0.50;;
10128;SDS011;5104;50.720;7.044;2024-02-23T04:26:19;0.60;;;0.60;;
10128;SDS011;5104;50.720;7.044;2024-02-23T04:28:46;0.60;;;0.60;;
10128;SDS011;5104;50.720;7.044;2024-02-23T04:31:13;0.60;;;0.60;;
10128;SDS011;5104;50.720;7.044;2024-02-23T04:33:40;0.40;;;0.40;;
10128;SDS011;5104;50.720;7.044;2024-02-23T04:36:07;0.80;;;0.80;;
10128;SDS011;5104;50.720;7.044;2024-02-23T04:38:34;0.60;;;0.60;;
10128;SDS011;5104;50.720;7.044;2024-02-23T04:41:02;0.60;;;0.60;;
10128;SDS011;5104;50.720;7.044;2024-02-23T04:43:31;0.50;;;0.50;;
10128;SDS011;5104;50.720;7.044;2024-02-23T04:45:58;0.60;;;0.60;;
10128;SDS011;5104;50.720;7.044;2024-02-23T04:48:25;0.60;;;0.60;;
10128;SDS011;5104;50.720;7.044;2024-02-23T04:50:53;0.60;;;0.60;;
10128;SDS011;5104;50.720;7.044;2024-02-23T04:53:20;0.57;;;0.57;;
10128;SDS011;5104;50.720;7.044;2024-02-23T04:55:47;0.60;;;0.60;;
10128;SDS011;5104;50.720;7.044;2024-02-23T04:58:14;0.60;;;0.60;;
10128;SDS011;5104;50.720;7.044;2024-02-23T05:00:42;0.60;;;0.60;;
10128;SDS011;5104;50.720;7.044;2024-02-23T05:03:09;0.50;;;0.50;;
10128;SDS011;5104;50.720;7.044;2024-02-23T05:05:36;0.60;;;0.60;;
10128;SDS011;5104;50.720;7.044;2024-02-23T05:08:03;0.52;;;0.52;;
10128;SDS011;5104;50.720;7.044;2024-02-23T05:10:30;0.60;;;0.60;;
10128;SDS011;5104;50.720;7.044;2024-02-23T05:12:57;0.60;;;0.60;;
10128;SDS011;5104;50.720;7.044;2024-02-23T05:15:23;0.60;;;0.60;;
10128;SDS011;5104;50.720;7.044;2024-02-23T05:17:52;0.55;;;0.55;;
10128;SDS011;5104;50.720;7.044;2024-02-23T05:20:19;0.60;;;0.60;;
10128;SDS011;5104;50.720;7.044;2024-02-23T05:22:45;0.60;;;0.60;;
10128;SDS011;5104;50.720;7.044;2024-02-23T05:25:13;0.40;;;0.40;;
10128;SDS011;5104;50.720;7.044;2024-02-23T05:27:39;0.60;;;0.60;;
10128;SDS011;5104;50.720;7.044;2024-02-23T05:30:07;0.60;;;0.60;;
10128;SDS011;5104;50.720;7.044;2024-02-23T05:32:35;0.60;;;0.60;;
10128;SDS011;5104;50.720;7.044;2024-02-23T05:35:04;0.60;;;0.60;;
10128;SDS011;5104;50.720;7.044;2024-02-23T05:37:31;0.60;;;0.60;;
10128;SDS011;5104;50.720;7.044;2024-02-23T05:39:58;0.60;;;0.60;;
10128;SDS011;5104;50.720;7.044;2024-02-23T05:42:28;0.60;;;0.60;;
10128;SDS011;5104;50.720;7.044;2024-02-23T05:44:56;0.60;;;0.60;;
10128;SDS011;5104;50.720;7.044;2024-02-23T05:47:22;0.60;;;0.60;;
10128;SDS011;5104;50.720;7.044;2024-02-23T05:49:50;0.40;;;0.40;;
10128;SDS011;5104;50.720;7.044;2024-02-23T05:52:18;0.60;;;0.60;;
10128;SDS011;5104;50.720;7.044;2024-02-23T05:54:45;0.60;;;0.60;;
10128;SDS011;5104;50.720;7.044;2024-02-23T05:57:12;0.60;;;0.60;;
10128;SDS011;5104;50.720;7.044;2024-02-23T05:59:39;0.60;;;0.60;;
10128;SDS011;5104;50.720;7.044;2024-02-23T06:02:05;0.60;;;0.60;;
10128;SDS011;5104;50.720;7.044;2024-02-23T06:04:32;0.60;;;0.60;;
10128;SDS011;5104;50.720;7.044;2024-02-23T06:06:59;0.60;;;0.60;;
10128;SDS011;5104;50.720;7.044;2024-02-23T06:09:27;0.60;;;0.60;;
10128;SDS011;5104;50.720;7.044;2024-02-23T06:11:54;0.60;;;0.60;;
10128;SDS011;5104;50.720;7.044;2024-02-23T06:14:21;0.60;;;0.60;;
10128;SDS011;5104;50.720;7.044;2024-02-23T06:16:49;0.60;;;0.60;;
10128;SDS011;5104;50.720;7.044;2024-02-23T06:19:15;0.60;;;0.60;;
10128;SDS011;5104;50.720;7.044;2024-02-23T06:21:42;0.60;;;0.60;;
10128;SDS011;5104;50.720;7.044;2024-02-23T06:24:13;0.52;;;0.52;;
10128;SDS011;5104;50.720;7.044;2024-02-23T06:26:41;0.50;;;0.50;;
10128;SDS011;5104;50.720;7.044;2024-02-23T06:29:08;0.60;;;0.60;;
10128;SDS011;5104;50.720;7.044;2024-02-23T06:31:37;0.50;;;0.50;;
10128;SDS011;5104;50.720;7.044;2024-02-23T06:34:04;0.50;;;0.50;;
10128;SDS011;5104;50.720;7.044;2024-02-23T06:36:31;0.50;;;0.50;;
10128;SDS011;5104;50.720;7.044;2024-02-23T06:38:58;0.50;;;0.50;;
10128;SDS011;5104;50.720;7.044;2024-02-23T06:41:25;0.50;;;0.50;;
10128;SDS011;5104;50.720;7.044;2024-02-23T06:43:54;0.50;;;0.50;;
10128;SDS011;5104;50.720;7.044;2024-02-23T06:46:20;0.60;;;0.60;;
10128;SDS011;5104;50.720;7.044;2024-02-23T06:48:48;0.50;;;0.50;;
10128;SDS011;5104;50.720;7.044;2024-02-23T06:51:15;0.50;;;0.50;;
10128;SDS011;5104;50.720;7.044;2024-02-23T06:53:41;0.60;;;0.60;;
10128;SDS011;5104;50.720;7.044;2024-02-23T06:56:08;0.65;;;0.65;;
10128;SDS011;5104;50.720;7.044;2024-02-23T06:58:35;0.50;;;0.50;;
10128;SDS011;5104;50.720;7.044;2024-02-23T07:01:03;0.50;;;0.50;;
10128;SDS011;5104;50.720;7.044;2024-02-23T07:03:32;0.60;;;0.60;;
10128;SDS011;5104;50.720;7.044;2024-02-23T07:06:00;0.60;;;0.60;;
10128;SDS011;5104;50.720;7.044;2024-02-23T07:08:28;0.60;;;0.60;;
10128;SDS011;5104;50.720;7.044;2024-02-23T07:10:55;0.60;;;0.60;;
10128;SDS011;5104;50.720;7.044;2024-02-23T07:13:22;0.60;;;0.60;;
10128;SDS011;5104;50.720;7.044;2024-02-23T07:15:49;0.60;;;0.60;;
10128;SDS011;5104;50.720;7.044;2024-02-23T07:18:17;0.50;;;0.50;;
10128;SDS011;5104;50.720;7.044;2024-02-23T07:20:44;0.50;;;0.50;;
10128;SDS011;5104;50.720;7.044;2024-02-23T07:23:11;0.50;;;0.50;;
10128;SDS011;5104;50.720;7.044;2024-02-23T07:25:37;0.60;;;0.60;;
10128;SDS011;5104;50.720;7.044;2024-02-23T07:28:06;0.50;;;0.50;;
10128;SDS011;5104;50.720;7.044;2024-02-23T07:30:33;0.50;;;0.50;;
10128;SDS011;5104;50.720;7.044;2024-02-23T07:33:00;0.50;;;0.50;;
10128;SDS011;5104;50.720;7.044;2024-02-23T07:35:28;0.50;;;0.50;;
10128;SDS011;5104;50.720;7.044;2024-02-23T07:37:55;0.40;;;0.40;;
10128;SDS011;5104;50.720;7.044;2024-02-23T07:40:22;0.50;;;0.50;;
10128;SDS011;5104;50.720;7.044;2024-02-23T07:42:49;0.50;;;0.50;;
10128;SDS011;5104;50.720;7.044;2024-02-23T07:45:16;0.40;;;0.40;;
10128;SDS011;5104;50.720;7.044;2024-02-23T07:47:43;0.30;;;0.30;;
10128;SDS011;5104;50.720;7.044;2024-02-23T07:50:10;0.40;;;0.40;;
10128;SDS011;5104;50.720;7.044;2024-02-23T07:52:39;0.40;;;0.40;;
10128;SDS011;5104;50.720;7.044;2024-02-23T07:55:06;0.40;;;0.40;;
10128;SDS011;5104;50.720;7.044;2024-02-23T07:57:33;0.40;;;0.40;;
10128;SDS011;5104;50.720;7.044;2024-02-23T08:00:00;0.50;;;0.50;;
10128;SDS011;5104;50.720;7.044;2024-02-23T08:02:28;0.50;;;0.50;;
10128;SDS011;5104;50.720;7.044;2024-02-23T08:04:54;0.50;;;0.50;;
10128;SDS011;5104;50.720;7.044;2024-02-23T08:07:22;0.50;;;0.50;;
10128;SDS011;5104;50.720;7.044;2024-02-23T08:09:52;0.40;;;0.40;;
10128;SDS011;5104;50.720;7.044;2024-02-23T08:12:18;0.50;;;0.50;;
10128;SDS011;5104;50.720;7.044;2024-02-23T08:14:45;0.85;;;0.85;;
10128;SDS011;5104;50.720;7.044;2024-02-23T08:17:14;0.50;;;0.50;;
10128;SDS011;5104;50.720;7.044;2024-02-23T08:19:41;0.50;;;0.50;;
10128;SDS011;5104;50.720;7.044;2024-02-23T08:22:08;0.50;;;0.50;;
10128;SDS011;5104;50.720;7.044;2024-02-23T08:24:35;0.40;;;0.40;;
10128;SDS011;5104;50.720;7.044;2024-02-23T08:27:03;0.50;;;0.50;;
10128;SDS011;5104;50.720;7.044;2024-02-23T08:29:31;0.40;;;0.40;;
10128;SDS011;5104;50.720;7.044;2024-02-23T08:31:58;0.50;;;0.50;;
10128;SDS011;5104;50.720;7.044;2024-02-23T08:34:25;0.50;;;0.50;;
10128;SDS011;5104;50.720;7.044;2024-02-23T08:36:52;0.50;;;0.50;;
10128;SDS011;5104;50.720;7.044;2024-02-23T08:39:19;0.30;;;0.30;;
10128;SDS011;5104;50.720;7.044;2024-02-23T08:41:47;0.40;;;0.40;;
10128;SDS011;5104;50.720;7.044;2024-02-23T08:44:17;0.35;;;0.35;;
10128;SDS011;5104;50.720;7.044;2024-02-23T08:46:44;0.32;;;0.32;;
10128;SDS011;5104;50.720;7.044;2024-02-23T08:49:11;0.30;;;0.30;;
10128;SDS011;5104;50.720;7.044;2024-02-23T08:51:38;0.30;;;0.30;;
10128;SDS011;5104;50.720;7.044;2024-02-23T08:54:05;0.47;;;0.47;;
10128;SDS011;5104;50.720;7.044;2024-02-23T08:56:36;0.40;;;0.40;;
10128;SDS011;5104;50.720;7.044;2024-02-23T08:59:03;0.30;;;0.30;;
10128;SDS011;5104;50.720;7.044;2024-02-23T09:01:31;0.50;;;0.50;;
10128;SDS011;5104;50.720;7.044;2024-02-23T09:03:58;0.43;;;0.43;;
10128;SDS011;5104;50.720;7.044;2024-02-23T09:06:25;0.50;;;0.50;;
10128;SDS011;5104;50.720;7.044;2024-02-23T09:08:52;0.40;;;0.40;;
10128;SDS011;5104;50.720;7.044;2024-02-23T09:11:19;0.40;;;0.40;;
10128;SDS011;5104;50.720;7.044;2024-02-23T09:13:46;0.30;;;0.30;;
10128;SDS011;5104;50.720;7.044;2024-02-23T09:16:13;0.40;;;0.40;;
10128;SDS011;5104;50.720;7.044;2024-02-23T09:18:41;0.30;;;0.30;;
10128;SDS011;5104;50.720;7.044;2024-02-23T09:21:08;0.47;;;0.47;;
10128;SDS011;5104;50.720;7.044;2024-02-23T09:23:35;0.40;;;0.40;;
10128;SDS011;5104;50.720;7.044;2024-02-23T09:26:08;0.50;;;0.50;;
10128;SDS011;5104;50.720;7.044;2024-02-23T09:28:35;0.40;;;0.40;;
10128;SDS011;5104;50.720;7.044;2024-02-23T09:31:02;0.40;;;0.40;;
10128;SDS011;5104;50.720;7.044;2024-02-23T09:33:30;0.50;;;0.50;;
10128;SDS011;5104;50.720;7.044;2024-02-23T09:35:58;0.50;;;0.50;;
10128;SDS011;5104;50.720;7.044;2024-02-23T09:38:26;0.50;;;0.50;;
10128;SDS011;5104;50.720;7.044;2024-02-23T09:40:53;0.40;;;0.40;;
10128;SDS011;5104;50.720;7.044;2024-02-23T09:43:20;0.50;;;0.50;;
10128;SDS011;5104;50.720;7.044;2024-02-23T09:45:50;0.40;;;0.40;;
10128;SDS011;5104;50.720;7.044;2024-02-23T09:48:17;0.40;;;0.40;;
10128;SDS011;5104;50.720;7.044;2024-02-23T09:50:46;0.40;;;0.40;;
10128;SDS011;5104;50.720;7.044;2024-02-23T09:53:15;0.40;;;0.40;;
10128;SDS011;5104;50.720;7.044;2024-02-23T09:55:44;0.50;;;0.50;;
10128;SDS011;5104;50.720;7.044;2024-02-23T09:58:13;0.40;;;0.40;;
10128;SDS011;5104;50.720;7.044;2024-02-23T10:00:42;0.40;;;0.40;;
10128;SDS011;5104;50.720;7.044;2024-02-23T10:03:09;0.30;;;0.30;;
10128;SDS011;5104;50.720;7.044;2024-02-23T10:05:36;0.38;;;0.38;;
10128;SDS011;5104;50.720;7.044;2024-02-23T10:08:03;0.40;;;0.40;;
10128;SDS011;5104;50.720;7.044;2024-02-23T10:10:33;0.50;;;0.50;;
10128;SDS011;5104;50.720;7.044;2024-02-23T10:13:01;0.50;;;0.50;;
10128;SDS011;5104;50.720;7.044;2024-02-23T10:15:29;0.40;;;0.40;;
10128;SDS011;5104;50.720;7.044;2024-02-23T10:17:56;0.30;;;0.30;;
10128;SDS011;5104;50.720;7.044;2024-02-23T10:20:23;0.40;;;0.40;;
10128;SDS011;5104;50.720;7.044;2024-02-23T10:22:50;0.40;;;0.40;;
10128;SDS011;5104;50.720;7.044;2024-02-23T10:25:18;0.40;;;0.40;;
10128;SDS011;5104;50.720;7.044;2024-02-23T10:27:47;0.40;;;0.40;;
10128;SDS011;5104;50.720;7.044;2024-02-23T10:30:14;0.50;;;0.50;;
10128;SDS011;5104;50.720;7.044;2024-02-23T10:32:41;0.47;;;0.47;;
10128;SDS011;5104;50.720;7.044;2024-02-23T10:35:10;0.50;;;0.50;;
10128;SDS011;5104;50.720;7.044;2024-02-23T10:37:41;0.40;;;0.40;;
10128;SDS011;5104;50.720;7.044;2024-02-23T10:40:10;0.40;;;0.40;;
10128;SDS011;5104;50.720;7.044;2024-02-23T10:42:38;0.43;;;0.43;;
10128;SDS011;5104;50.720;7.044;2024-02-23T10:45:09;0.40;;;0.40;;
10128;SDS011;5104;50.720;7.044;2024-02-23T10:47:36;0.40;;;0.40;;
10128;SDS011;5104;50.720;7.044;2024-02-23T10:50:03;0.50;;;0.50;;
10128;SDS011;5104;50.720;7.044;2024-02-23T10:52:32;0.40;;;0.40;;
10128;SDS011;5104;50.720;7.044;2024-02-23T10:55:01;0.40;;;0.40;;
10128;SDS011;5104;50.720;7.044;2024-02-23T10:57:29;0.40;;;0.40;;
10128;SDS011;5104;50.720;7.044;2024-02-23T10:59:57;0.40;;;0.40;;
10128;SDS011;5104;50.720;7.044;2024-02-23T11:02:27;0.40;;;0.40;;
10128;SDS011;5104;50.720;7.044;2024-02-23T11:04:57;0.30;;;0.30;;
10128;SDS011;5104;50.720;7.044;2024-02-23T11:07:24;0.40;;;0.40;;
10128;SDS011;5104;50.720;7.044;2024-02-23T11:09:53;0.40;;;0.40;;
10128;SDS011;5104;50.720;7.044;2024-02-23T11:12:23;0.30;;;0.30;;
10128;SDS011;5104;50.720;7.044;2024-02-23T11:14:51;0.30;;;0.30;;
10128;SDS011;5104;50.720;7.044;2024-02-23T11:17:22;0.43;;;0.43;;
10128;SDS011;5104;50.720;7.044;2024-02-23T11:19:54;0.40;;;0.40;;
10128;SDS011;5104;50.720;7.044;2024-02-23T11:22:25;0.30;;;0.30;;
10128;SDS011;5104;50.720;7.044;2024-02-23T11:24:52;0.40;;;0.40;;
10128;SDS011;5104;50.720;7.044;2024-02-23T11:27:19;0.30;;;0.30;;
10128;SDS011;5104;50.720;7.044;2024-02-23T11:29:47;0.43;;;0.43;;
10128;SDS011;5104;50.720;7.044;2024-02-23T11:32:14;0.32;;;0.32;;
10128;SDS011;5104;50.720;7.044;2024-02-23T11:34:53;0.30;;;0.30;;
10128;SDS011;5104;50.720;7.044;2024-02-23T11:37:22;0.30;;;0.30;;
10128;SDS011;5104;50.720;7.044;2024-02-23T11:39:49;0.30;;;0.30;;
10128;SDS011;5104;50.720;7.044;2024-02-23T11:42:16;0.40;;;0.40;;
10128;SDS011;5104;50.720;7.044;2024-02-23T11:44:44;0.50;;;0.50;;
10128;SDS011;5104;50.720;7.044;2024-02-23T11:47:11;0.40;;;0.40;;
10128;SDS011;5104;50.720;7.044;2024-02-23T11:49:38;0.40;;;0.40;;
10128;SDS011;5104;50.720;7.044;2024-02-23T11:52:07;0.40;;;0.40;;
10128;SDS011;5104;50.720;7.044;2024-02-23T11:54:33;0.40;;;0.40;;
10128;SDS011;5104;50.720;7.044;2024-02-23T11:57:01;0.40;;;0.40;;
10128;SDS011;5104;50.720;7.044;2024-02-23T11:59:28;0.40;;;0.40;;
10128;SDS011;5104;50.720;7.044;2024-02-23T12:01:55;0.40;;;0.40;;
10128;SDS011;5104;50.720;7.044;2024-02-23T12:04:22;0.40;;;0.40;;
10128;SDS011;5104;50.720;7.044;2024-02-23T12:06:48;0.40;;;0.40;;
10128;SDS011;5104;50.720;7.044;2024-02-23T12:09:17;0.40;;;0.40;;
10128;SDS011;5104;50.720;7.044;2024-02-23T12:11:44;0.40;;;0.40;;
10128;SDS011;5104;50.720;7.044;2024-02-23T12:14:11;0.40;;;0.40;;
10128;SDS011;5104;50.720;7.044;2024-02-23T12:16:39;0.55;;;0.55;;
10128;SDS011;5104;50.720;7.044;2024-02-23T12:19:07;0.40;;;0.40;;
10128;SDS011;5104;50.720;7.044;2024-02-23T12:21:34;0.40;;;0.40;;
10128;SDS011;5104;50.720;7.044;2024-02-23T12:24:03;0.30;;;0.30;;
10128;SDS011;5104;50.720;7.044;2024-02-23T12:26:32;0.30;;;0.30;;
10128;SDS011;5104;50.720;7.044;2024-02-23T12:29:00;0.40;;;0.40;;
10128;SDS011;5104;50.720;7.044;2024-02-23T12:31:28;0.40;;;0.40;;
10128;SDS011;5104;50.720;7.044;2024-02-23T12:33:56;0.30;;;0.30;;
10128;SDS011;5104;50.720;7.044;2024-02-23T12:36:23;0.30;;;0.30;;
10128;SDS011;5104;50.720;7.044;2024-02-23T12:38:50;0.40;;;0.40;;
10128;SDS011;5104;50.720;7.044;2024-02-23T12:41:17;0.45;;;0.45;;
10128;SDS011;5104;50.720;7.044;2024-02-23T12:43:45;0.40;;;0.40;;
10128;SDS011;5104;50.720;7.044;2024-02-23T12:46:13;0.40;;;0.40;;
10128;SDS011;5104;50.720;7.044;2024-02-23T12:48:40;0.38;;;0.38;;
10128;SDS011;5104;50.720;7.044;2024-02-23T12:51:07;0.40;;;0.40;;
10128;SDS011;5104;50.720;7.044;2024-02-23T12:53:35;0.40;;;0.40;;
10128;SDS011;5104;50.720;7.044;2024-02-23T12:56:03;0.40;;;0.40;;
10128;SDS011;5104;50.720;7.044;2024-02-23T12:58:33;0.40;;;0.40;;
10128;SDS011;5104;50.720;7.044;2024-02-23T13:01:01;0.30;;;0.30;;
10128;SDS011;5104;50.720;7.044;2024-02-23T13:03:28;0.40;;;0.40;;
10128;SDS011;5104;50.720;7.044;2024-02-23T13:05:55;0.40;;;0.40;;
10128;SDS011;5104;50.720;7.044;2024-02-23T13:08:23;0.40;;;0.40;;
10128;SDS011;5104;50.720;7.044;2024-02-23T13:10:51;0.40;;;0.40;;
10128;SDS011;5104;50.720;7.044;2024-02-23T13:13:19;0.40;;;0.40;;
10128;SDS011;5104;50.720;7.044;2024-02-23T13:15:46;0.32;;;0.32;;
10128;SDS011;5104;50.720;7.044;2024-02-23T13:18:16;0.60;;;0.60;;
10128;SDS011;5104;50.720;7.044;2024-02-23T13:20:44;0.30;;;0.30;;
10128;SDS011;5104;50.720;7.044;2024-02-23T13:23:11;0.50;;;0.50;;
10128;SDS011;5104;50.720;7.044;2024-02-23T13:25:39;0.30;;;0.30;;
10128;SDS011;5104;50.720;7.044;2024-02-23T13:28:06;0.30;;;0.30;;
10128;SDS011;5104;50.720;7.044;2024-02-23T13:30:34;0.40;;;0.40;;
10128;SDS011;5104;50.720;7.044;2024-02-23T13:33:02;0.30;;;0.30;;
10128;SDS011;5104;50.720;7.044;2024-02-23T13:35:31;0.40;;;0.40;;
10128;SDS011;5104;50.720;7.044;2024-02-23T13:37:58;0.30;;;0.30;;
10128;SDS011;5104;50.720;7.044;2024-02-23T13:40:25;0.47;;;0.47;;
10128;SDS011;5104;50.720;7.044;2024-02-23T13:42:52;0.40;;;0.40;;
10128;SDS011;5104;50.720;7.044;2024-02-23T13:45:19;0.40;;;0.40;;
10128;SDS011;5104;50.720;7.044;2024-02-23T13:47:55;0.30;;;0.30;;
10128;SDS011;5104;50.720;7.044;2024-02-23T13:50:23;0.40;;;0.40;;
10128;SDS011;5104;50.720;7.044;2024-02-23T13:52:51;0.40;;;0.40;;
10128;SDS011;5104;50.720;7.044;2024-02-23T13:55:18;0.40;;;0.40;;
10128;SDS011;5104;50.720;7.044;2024-02-23T13:57:46;0.40;;;0.40;;
10128;SDS011;5104;50.720;7.044;2024-02-23T14:00:15;0.40;;;0.40;;
10128;SDS011;5104;50.720;7.044;2024-02-23T14:02:42;0.40;;;0.40;;
10128;SDS011;5104;50.720;7.044;2024-02-23T14:05:11;0.40;;;0.40;;
10128;SDS011;5104;50.720;7.044;2024-02-23T14:07:43;0.40;;;0.40;;
10128;SDS011;5104;50.720;7.044;2024-02-23T14:10:11;0.40;;;0.40;;
10128;SDS011;5104;50.720;7.044;2024-02-23T14:12:38;0.40;;;0.40;;
10128;SDS011;5104;50.720;7.044;2024-02-23T14:15:06;0.30;;;0.30;;
10128;SDS011;5104;50.720;7.044;2024-02-23T14:17:34;0.40;;;0.40;;
10128;SDS011;5104;50.720;7.044;2024-02-23T14:20:01;0.40;;;0.40;;
10128;SDS011;5104;50.720;7.044;2024-02-23T14:22:29;0.40;;;0.40;;
10128;SDS011;5104;50.720;7.044;2024-02-23T14:24:56;0.63;;;0.63;;
10128;SDS011;5104;50.720;7.044;2024-02-23T14:27:25;0.40;;;0.40;;
10128;SDS011;5104;50.720;7.044;2024-02-23T14:29:53;0.30;;;0.30;;
10128;SDS011;5104;50.720;7.044;2024-02-23T14:32:20;0.40;;;0.40;;
10128;SDS011;5104;50.720;7.044;2024-02-23T14:34:47;0.40;;;0.40;;
10128;SDS011;5104;50.720;7.044;2024-02-23T14:37:14;0.30;;;0.30;;
10128;SDS011;5104;50.720;7.044;2024-02-23T14:39:41;0.50;;;0.50;;
10128;SDS011;5104;50.720;7.044;2024-02-23T14:42:09;0.40;;;0.40;;
10128;SDS011;5104;50.720;7.044;2024-02-23T14:44:37;0.40;;;0.40;;
10128;SDS011;5104;50.720;7.044;2024-02-23T14:47:05;0.40;;;0.40;;
10128;SDS011;5104;50.720;7.044;2024-02-23T14:49:32;0.40;;;0.40;;
10128;SDS011;5104;50.720;7.044;2024-02-23T14:51:59;0.40;;;0.40;;
10128;SDS011;5104;50.720;7.044;2024-02-23T14:54:26;0.38;;;0.38;;
10128;SDS011;5104;50.720;7.044;2024-02-23T14:56:54;0.30;;;0.30;;
10128;SDS011;5104;50.720;7.044;2024-02-23T14:59:21;0.40;;;0.40;;
10128;SDS011;5104;50.720;7.044;2024-02-23T15:01:50;0.40;;;0.40;;